createdAt,value
2022-12-04T00:01:05.294Z,96542.53
2022-12-04T00:03:32.643Z,96535.38
2022-12-04T00:06:10.163Z,96525.44
2022-12-04T00:08:37.597Z,96525.44
2022-12-04T00:11:05.890Z,96525.97
2022-12-04T00:13:33.581Z,96532.06
2022-12-04T00:16:00.828Z,96541.53
2022-12-04T00:18:27.950Z,96541.28
2022-12-04T00:20:54.749Z,96545.09
2022-12-04T00:23:21.403Z,96536.66
2022-12-04T00:25:48.928Z,96546.63
2022-12-04T00:28:19.236Z,96550.22
2022-12-04T00:30:46.452Z,96553.03
2022-12-04T00:33:14.248Z,96546.88
2022-12-04T00:35:41.302Z,96548.16
2022-12-04T00:38:07.988Z,96539.72
2022-12-04T00:40:34.830Z,96546.41
2022-12-04T00:43:01.486Z,96553.78
2022-12-04T00:45:28.170Z,96546.88
2022-12-04T00:47:55.299Z,96550.22
2022-12-04T00:50:22.371Z,96551.22
2022-12-04T00:52:49.087Z,96548.44
2022-12-04T00:55:15.767Z,96555.59
2022-12-04T00:57:42.451Z,96560.69
2022-12-04T01:00:09.469Z,96560.44
2022-12-04T01:02:36.209Z,96548.69
2022-12-04T01:05:03.216Z,96558.91
2022-12-04T01:07:29.978Z,96566.31
2022-12-04T01:09:57.474Z,96557.09
2022-12-04T01:12:24.327Z,96561.22
2022-12-04T01:14:51.163Z,96552.00
2022-12-04T01:17:17.872Z,96546.41
2022-12-04T01:19:44.824Z,96556.88
2022-12-04T01:22:11.474Z,96552.75
2022-12-04T01:24:38.227Z,96552.00
2022-12-04T01:27:05.089Z,96552.00
2022-12-04T01:29:31.818Z,96554.31
2022-12-04T01:31:58.516Z,96554.81
2022-12-04T01:34:25.375Z,96564.00
2022-12-04T01:36:52.712Z,96561.44
2022-12-04T01:39:19.806Z,96554.56
2022-12-04T01:41:46.923Z,96547.16
2022-12-04T01:44:17.542Z,96542.81
2022-12-04T01:46:47.211Z,96551.22
2022-12-04T01:49:18.853Z,96548.16
2022-12-04T01:51:51.840Z,96561.72
2022-12-04T01:54:28.796Z,96556.34
2022-12-04T01:57:09.462Z,96543.84
2022-12-04T01:59:41.481Z,96552.78
2022-12-04T02:02:16.087Z,96558.91
2022-12-04T02:04:44.048Z,96564.50
2022-12-04T02:07:11.874Z,96558.38
2022-12-04T02:09:40.934Z,96559.16
2022-12-04T02:12:32.981Z,96560.69
2022-12-04T02:15:22.602Z,96553.03
2022-12-04T02:18:10.701Z,96568.34
2022-12-04T02:21:07.699Z,96567.06
2022-12-04T02:23:50.951Z,96568.88
2022-12-04T02:26:38.771Z,96558.38
2022-12-04T02:29:27.789Z,96570.66
2022-12-04T02:32:07.661Z,96567.31
2022-12-04T02:34:40.405Z,96564.50
2022-12-04T02:37:14.468Z,96566.31
2022-12-04T02:39:50.961Z,96571.94
2022-12-04T02:42:28.053Z,96588.25
2022-12-04T02:45:01.553Z,96576.50
2022-12-04T02:47:28.285Z,96586.50
2022-12-04T02:50:00.002Z,96584.44
2022-12-04T02:52:35.260Z,96584.66
2022-12-04T02:55:25.621Z,96578.81
2022-12-04T02:57:58.230Z,96580.81
2022-12-04T03:00:25.160Z,96580.31
2022-12-04T03:03:06.931Z,96581.56
2022-12-04T03:05:43.360Z,96574.66
2022-12-04T03:08:19.549Z,96568.81
2022-12-04T03:10:51.711Z,96577.72
2022-12-04T03:13:23.055Z,96572.88
2022-12-04T03:15:55.820Z,96575.44
2022-12-04T03:18:45.503Z,96578.25
2022-12-04T03:21:20.333Z,96566.00
2022-12-04T03:23:52.124Z,96574.16
2022-12-04T03:26:37.273Z,96578.25
2022-12-04T03:29:11.879Z,96578.25
2022-12-04T03:32:00.548Z,96576.47
2022-12-04T03:34:47.311Z,96571.59
2022-12-04T03:37:18.169Z,96563.94
2022-12-04T03:39:54.190Z,96566.47
2022-12-04T03:42:25.744Z,96571.09
2022-12-04T03:45:00.145Z,96572.34
2022-12-04T03:47:36.436Z,96566.75
2022-12-04T03:50:10.177Z,96563.44
2022-12-04T03:52:48.388Z,96561.88
2022-12-04T03:55:29.710Z,96565.97
2022-12-04T03:57:59.932Z,96556.25
2022-12-04T04:00:27.401Z,96552.41
2022-12-04T04:03:07.506Z,96557.03
2022-12-04T04:05:38.345Z,96550.66
2022-12-04T04:08:26.432Z,96543.47
2022-12-04T04:11:22.290Z,96548.59
2022-12-04T04:14:21.028Z,96538.09
2022-12-04T04:17:17.897Z,96533.25
2022-12-04T04:20:06.832Z,96539.66
2022-12-04T04:22:56.208Z,96539.91
2022-12-04T04:25:24.941Z,96539.91
2022-12-04T04:27:53.614Z,96546.28
2022-12-04T04:30:20.844Z,96536.06
2022-12-04T04:33:13.131Z,96533.50
2022-12-04T04:36:08.949Z,96543.22
2022-12-04T04:38:43.223Z,96542.97
2022-12-04T04:41:34.138Z,96538.63
2022-12-04T04:44:09.121Z,96539.91
2022-12-04T04:46:41.708Z,96543.47
2022-12-04T04:49:12.374Z,96540.66
2022-12-04T04:51:39.624Z,96544.00
2022-12-04T04:54:10.033Z,96543.47
2022-12-04T04:56:44.509Z,96538.63
2022-12-04T04:59:11.856Z,96540.41
2022-12-04T05:01:39.788Z,96541.16
2022-12-04T05:04:07.712Z,96538.09
2022-12-04T05:06:34.886Z,96541.94
2022-12-04T05:09:01.607Z,96536.31
2022-12-04T05:11:28.602Z,96548.31
2022-12-04T05:13:55.397Z,96548.84
2022-12-04T05:16:22.106Z,96548.56
2022-12-04T05:19:07.357Z,96545.00
2022-12-04T05:21:34.751Z,96545.75
2022-12-04T05:24:01.817Z,96549.06
2022-12-04T05:26:31.609Z,96550.09
2022-12-04T05:28:58.314Z,96545.72
2022-12-04T05:31:25.086Z,96549.56
2022-12-04T05:33:51.852Z,96540.38
2022-12-04T05:36:18.544Z,96547.53
2022-12-04T05:38:45.279Z,96547.53
2022-12-04T05:41:12.116Z,96546.75
2022-12-04T05:43:38.836Z,96544.72
2022-12-04T05:46:07.531Z,96543.66
2022-12-04T05:48:35.799Z,96551.31
2022-12-04T05:51:07.704Z,96548.75
2022-12-04T05:53:38.406Z,96553.09
2022-12-04T05:56:07.594Z,96540.34
2022-12-04T05:58:36.715Z,96540.34
2022-12-04T06:01:16.394Z,96542.38
2022-12-04T06:03:43.823Z,96546.19
2022-12-04T06:06:22.123Z,96533.44
2022-12-04T06:08:52.008Z,96540.84
2022-12-04T06:11:33.915Z,96543.91
2022-12-04T06:14:03.297Z,96535.97
2022-12-04T06:16:33.667Z,96548.25
2022-12-04T06:19:04.974Z,96540.06
2022-12-04T06:21:33.868Z,96541.84
2022-12-04T06:24:00.539Z,96541.81
2022-12-04T06:26:28.064Z,96540.56
2022-12-04T06:28:56.908Z,96550.00
2022-12-04T06:31:25.251Z,96548.22
2022-12-04T06:33:53.990Z,96546.97
2022-12-04T06:36:22.052Z,96548.25
2022-12-04T06:38:50.604Z,96543.38
2022-12-04T06:41:20.846Z,96549.78
2022-12-04T06:43:48.711Z,96545.94
2022-12-04T06:46:21.123Z,96551.78
2022-12-04T06:48:48.398Z,96553.84
2022-12-04T06:51:24.927Z,96551.28
2022-12-04T06:53:52.572Z,96540.59
2022-12-04T06:56:22.465Z,96544.66
2022-12-04T06:58:51.789Z,96551.78
2022-12-04T07:01:20.700Z,96549.78
2022-12-04T07:03:51.487Z,96553.09
2022-12-04T07:06:25.841Z,96557.16
2022-12-04T07:08:55.088Z,96557.44
2022-12-04T07:11:22.635Z,96542.13
2022-12-04T07:13:50.315Z,96543.38
2022-12-04T07:16:20.493Z,96547.97
2022-12-04T07:18:50.564Z,96550.28
2022-12-04T07:21:19.427Z,96543.91
2022-12-04T07:23:49.967Z,96544.66
2022-12-04T07:26:17.182Z,96538.03
2022-12-04T07:28:45.310Z,96532.44
2022-12-04T07:31:14.862Z,96533.72
2022-12-04T07:33:42.138Z,96536.78
2022-12-04T07:36:11.631Z,96534.22
2022-12-04T07:38:38.351Z,96533.44
2022-12-04T07:41:06.542Z,96525.78
2022-12-04T07:43:34.126Z,96562.28
2022-12-04T07:46:12.175Z,96557.22
2022-12-04T07:48:39.190Z,96563.31
2022-12-04T07:51:13.585Z,96563.06
2022-12-04T07:53:40.656Z,96560.03
2022-12-04T07:56:08.611Z,96561.28
2022-12-04T07:58:35.889Z,96564.88
2022-12-04T08:01:14.573Z,96563.59
2022-12-04T08:03:47.119Z,96559.03
2022-12-04T08:06:15.112Z,96559.03
2022-12-04T08:08:41.938Z,96556.22
2022-12-04T08:11:14.338Z,96560.31
2022-12-04T08:13:41.162Z,96554.69
2022-12-04T08:16:09.646Z,96553.66
2022-12-04T08:18:36.847Z,96556.47
2022-12-04T08:21:14.743Z,96558.78
2022-12-04T08:23:43.097Z,96553.66
2022-12-04T08:26:11.040Z,96546.78
2022-12-04T08:28:38.327Z,96541.69
2022-12-04T08:31:14.867Z,96532.50
2022-12-04T08:33:42.735Z,96533.28
2022-12-04T08:36:11.575Z,96526.91
2022-12-04T08:38:38.585Z,96546.81
2022-12-04T08:41:07.069Z,96535.34
2022-12-04T08:43:34.632Z,96542.50
2022-12-04T08:46:03.627Z,96554.47
2022-12-04T08:48:30.345Z,96550.66
2022-12-04T08:50:57.726Z,96555.00
2022-12-04T08:53:25.124Z,96557.56
2022-12-04T08:55:52.365Z,96567.25
2022-12-04T08:58:20.422Z,96576.00
2022-12-04T09:00:47.797Z,96570.09
2022-12-04T09:03:17.458Z,96575.00
2022-12-04T09:05:47.898Z,96570.59
2022-12-04T09:08:16.332Z,96557.88
2022-12-04T09:10:43.583Z,96551.97
2022-12-04T09:13:10.725Z,96548.44
2022-12-04T09:15:40.849Z,96554.56
2022-12-04T09:18:08.789Z,96553.03
2022-12-04T09:20:36.727Z,96561.22
2022-12-04T09:23:05.537Z,96551.00
2022-12-04T09:25:36.486Z,96548.94
2022-12-04T09:28:04.296Z,96543.34
2022-12-04T09:30:31.078Z,96527.22
2022-12-04T09:32:57.751Z,96533.09
2022-12-04T09:35:24.490Z,96533.88
2022-12-04T09:37:51.211Z,96519.06
2022-12-04T09:40:36.812Z,96534.63
2022-12-04T09:43:16.082Z,96531.31
2022-12-04T09:45:49.002Z,96526.72
2022-12-04T09:48:17.657Z,96518.28
2022-12-04T09:50:47.033Z,96511.13
2022-12-04T09:53:13.710Z,96514.97
2022-12-04T09:55:40.368Z,96519.81
2022-12-04T09:58:14.559Z,96530.28
2022-12-04T10:00:43.838Z,96517.28
2022-12-04T10:03:22.481Z,96517.78
2022-12-04T10:06:04.539Z,96507.06
2022-12-04T10:08:38.624Z,96514.22
2022-12-04T10:11:47.033Z,96514.44
2022-12-04T10:14:28.654Z,96492.22
2022-12-04T10:17:18.406Z,96497.56
2022-12-04T10:20:03.919Z,96486.06
2022-12-04T10:22:38.965Z,96494.25
2022-12-04T10:25:12.249Z,96491.16
2022-12-04T10:27:44.865Z,96490.66
2022-12-04T10:30:20.609Z,96494.47
2022-12-04T10:32:49.133Z,96491.41
2022-12-04T10:35:21.272Z,96495.22
2022-12-04T10:37:53.620Z,96488.81
2022-12-04T10:40:35.209Z,96490.09
2022-12-04T10:43:15.093Z,96494.19
2022-12-04T10:45:42.115Z,96486.50
2022-12-04T10:48:18.314Z,96491.34
2022-12-04T10:50:45.148Z,96471.91
2022-12-04T10:53:14.809Z,96473.97
2022-12-04T10:55:41.569Z,96463.72
2022-12-04T10:58:20.606Z,96470.63
2022-12-04T11:01:02.587Z,96460.41
2022-12-04T11:03:29.808Z,96460.41
2022-12-04T11:06:00.273Z,96458.84
2022-12-04T11:08:35.895Z,96464.50
2022-12-04T11:11:06.686Z,96467.31
2022-12-04T11:13:33.723Z,96458.88
2022-12-04T11:16:01.459Z,96457.84
2022-12-04T11:18:29.823Z,96452.22
2022-12-04T11:20:59.642Z,96448.09
2022-12-04T11:23:29.803Z,96454.00
2022-12-04T11:26:05.195Z,96437.63
2022-12-04T11:28:41.560Z,96440.16
2022-12-04T11:31:10.908Z,96431.72
2022-12-04T11:33:43.447Z,96436.31
2022-12-04T11:36:24.754Z,96424.28
2022-12-04T11:38:54.451Z,96424.31
2022-12-04T11:41:30.280Z,96408.44
2022-12-04T11:44:00.193Z,96422.50
2022-12-04T11:46:30.994Z,96416.63
2022-12-04T11:48:58.183Z,96421.97
2022-12-04T11:51:41.077Z,96434.00
2022-12-04T11:54:52.971Z,96434.53
2022-12-04T11:57:27.621Z,96435.28
2022-12-04T12:00:05.832Z,96432.22
2022-12-04T12:02:57.152Z,96420.91
2022-12-04T12:05:48.857Z,96418.34
2022-12-04T12:08:33.931Z,96407.88
2022-12-04T12:11:23.467Z,96423.44
2022-12-04T12:14:22.583Z,96422.66
2022-12-04T12:17:24.850Z,96421.34
2022-12-04T12:20:06.674Z,96433.94
2022-12-04T12:23:02.373Z,96440.84
2022-12-04T12:26:17.700Z,96435.69
2022-12-04T12:29:10.387Z,96435.94
2022-12-04T12:32:05.726Z,96437.00
2022-12-04T12:34:35.446Z,96428.03
2022-12-04T12:37:10.351Z,96426.97
2022-12-04T12:39:56.973Z,96427.03
2022-12-04T12:42:30.962Z,96421.88
2022-12-04T12:45:24.188Z,96436.50
2022-12-04T12:47:55.256Z,96449.03
2022-12-04T12:50:28.806Z,96458.00
2022-12-04T12:52:55.538Z,96454.66
2022-12-04T12:55:39.693Z,96461.84
2022-12-04T12:58:27.018Z,96458.53
2022-12-04T13:01:24.903Z,96458.00
2022-12-04T13:04:10.583Z,96454.66
2022-12-04T13:06:41.950Z,96458.00
2022-12-04T13:09:17.175Z,96461.06
2022-12-04T13:11:47.425Z,96434.19
2022-12-04T13:14:14.633Z,96432.41
2022-12-04T13:16:50.251Z,96430.84
2022-12-04T13:19:43.530Z,96432.19
2022-12-04T13:22:16.333Z,96427.81
2022-12-04T13:24:49.147Z,96416.81
2022-12-04T13:27:47.011Z,96419.84
2022-12-04T13:30:21.243Z,96427.00
2022-12-04T13:33:24.963Z,96416.81
2022-12-04T13:36:08.993Z,96416.81
2022-12-04T13:39:02.207Z,96423.16
2022-12-04T13:41:30.905Z,96422.16
2022-12-04T13:44:02.837Z,96426.47
2022-12-04T13:46:40.316Z,96426.53
2022-12-04T13:49:21.558Z,96431.34
2022-12-04T13:51:49.166Z,96433.66
2022-12-04T13:54:15.854Z,96426.78
2022-12-04T13:56:49.005Z,96419.59
2022-12-04T13:59:27.625Z,96411.66
2022-12-04T14:02:04.946Z,96418.34
2022-12-04T14:04:46.059Z,96412.91
2022-12-04T14:07:43.862Z,96423.44
2022-12-04T14:10:17.033Z,96415.50
2022-12-04T14:12:56.043Z,96413.72
2022-12-04T14:15:27.279Z,96407.34
2022-12-04T14:18:06.711Z,96387.63
2022-12-04T14:20:34.585Z,96399.38
2022-12-04T14:23:20.110Z,96388.66
2022-12-04T14:25:46.825Z,96384.78
2022-12-04T14:28:41.754Z,96383.78
2022-12-04T14:31:09.079Z,96381.47
2022-12-04T14:33:45.496Z,96379.41
2022-12-04T14:36:19.267Z,96375.06
2022-12-04T14:38:49.138Z,96375.56
2022-12-04T14:41:24.334Z,96386.06
2022-12-04T14:43:51.194Z,96381.97
2022-12-04T14:46:30.128Z,96380.47
2022-12-04T14:49:27.261Z,96378.44
2022-12-04T14:52:05.287Z,96384.56
2022-12-04T14:54:49.632Z,96369.19
2022-12-04T14:57:44.978Z,96365.63
2022-12-04T15:00:17.833Z,96370.75
2022-12-04T15:02:46.963Z,96363.84
2022-12-04T15:05:24.898Z,96363.06
2022-12-04T15:07:56.962Z,96359.47
2022-12-04T15:10:48.882Z,96354.34
2022-12-04T15:13:33.547Z,96366.88
2022-12-04T15:16:10.361Z,96361.00
2022-12-04T15:18:39.642Z,96357.97
2022-12-04T15:21:09.690Z,96356.63
2022-12-04T15:23:41.688Z,96358.19
2022-12-04T15:26:13.573Z,96359.47
2022-12-04T15:29:01.253Z,96362.00
2022-12-04T15:31:37.121Z,96366.88
2022-12-04T15:34:09.240Z,96373.25
2022-12-04T15:37:07.489Z,96372.50
2022-12-04T15:39:35.794Z,96381.97
2022-12-04T15:42:22.449Z,96389.88
2022-12-04T15:45:01.184Z,96387.84
2022-12-04T15:47:41.197Z,96386.34
2022-12-04T15:50:13.711Z,96385.81
2022-12-04T15:52:50.365Z,96382.50
2022-12-04T15:55:19.261Z,96373.75
2022-12-04T15:57:52.950Z,96367.59
2022-12-04T16:00:31.044Z,96382.50
2022-12-04T16:02:59.023Z,96379.94
2022-12-04T16:05:30.423Z,96377.59
2022-12-04T16:08:20.976Z,96377.09
2022-12-04T16:10:57.836Z,96377.59
2022-12-04T16:13:35.111Z,96382.97
2022-12-04T16:16:06.307Z,96376.06
2022-12-04T16:18:33.155Z,96374.75
2022-12-04T16:21:00.402Z,96367.34
2022-12-04T16:23:27.350Z,96366.06
2022-12-04T16:25:54.023Z,96366.06
2022-12-04T16:28:21.241Z,96371.94
2022-12-04T16:30:49.935Z,96369.63
2022-12-04T16:33:16.772Z,96371.94
2022-12-04T16:35:43.424Z,96369.63
2022-12-04T16:38:17.697Z,96362.47
2022-12-04T16:40:46.001Z,96371.94
2022-12-04T16:43:16.063Z,96368.09
2022-12-04T16:45:49.039Z,96374.47
2022-12-04T16:48:15.837Z,96379.84
2022-12-04T16:50:42.979Z,96377.03
2022-12-04T16:53:18.378Z,96377.53
2022-12-04T16:55:47.589Z,96371.88
2022-12-04T16:58:14.915Z,96382.91
2022-12-04T17:00:43.795Z,96386.53
2022-12-04T17:03:28.071Z,96381.88
2022-12-04T17:05:55.468Z,96380.88
2022-12-04T17:08:23.154Z,96376.50
2022-12-04T17:10:50.637Z,96390.31
2022-12-04T17:13:18.678Z,96388.00
2022-12-04T17:15:45.759Z,96386.97
2022-12-04T17:18:17.695Z,96382.38
2022-12-04T17:20:47.438Z,96381.63
2022-12-04T17:23:14.083Z,96383.91
2022-12-04T17:25:41.111Z,96381.84
2022-12-04T17:28:08.055Z,96382.38
2022-12-04T17:30:36.475Z,96369.81
2022-12-04T17:33:04.742Z,96381.84
2022-12-04T17:35:31.787Z,96368.53
2022-12-04T17:38:04.042Z,96368.28
2022-12-04T17:40:32.505Z,96363.41
2022-12-04T17:42:59.241Z,96363.94
2022-12-04T17:45:25.912Z,96363.94
2022-12-04T17:47:52.602Z,96358.31
2022-12-04T17:50:19.244Z,96359.31
2022-12-04T17:52:45.879Z,96355.72
2022-12-04T17:55:12.564Z,96362.34
2022-12-04T17:57:39.254Z,96360.09
2022-12-04T18:00:06.639Z,96365.97
2022-12-04T18:02:39.063Z,96367.75
2022-12-04T18:05:05.990Z,96360.84
2022-12-04T18:07:32.761Z,96360.09
2022-12-04T18:09:59.814Z,96361.34
2022-12-04T18:12:26.789Z,96363.41
2022-12-04T18:14:53.807Z,96356.22
2022-12-04T18:17:21.823Z,96354.44
2022-12-04T18:19:48.480Z,96351.63
2022-12-04T18:22:15.277Z,96353.66
2022-12-04T18:24:41.967Z,96344.94
2022-12-04T18:27:08.619Z,96341.13
2022-12-04T18:29:35.337Z,96341.63
2022-12-04T18:32:02.201Z,96349.31
2022-12-04T18:34:29.145Z,96343.13
2022-12-04T18:36:55.946Z,96345.22
2022-12-04T18:39:24.654Z,96336.25
2022-12-04T18:41:54.010Z,96339.28
2022-12-04T18:44:20.722Z,96336.25
2022-12-04T18:46:47.457Z,96339.28
2022-12-04T18:49:14.236Z,96332.13
2022-12-04T18:51:48.368Z,96328.81
2022-12-04T18:54:21.949Z,96317.53
2022-12-04T18:56:49.002Z,96324.75
2022-12-04T18:59:24.487Z,96318.03
2022-12-04T19:01:51.805Z,96321.91
2022-12-04T19:04:20.391Z,96329.56
2022-12-04T19:06:50.996Z,96316.25
2022-12-04T19:09:35.483Z,96311.84
2022-12-04T19:12:09.043Z,96312.88
2022-12-04T19:14:36.181Z,96321.38
2022-12-04T19:17:02.872Z,96307.25
2022-12-04T19:19:31.711Z,96309.03
2022-12-04T19:21:59.198Z,96305.41
2022-12-04T19:24:25.821Z,96300.28
2022-12-04T19:26:54.449Z,96299.22
2022-12-04T19:29:21.102Z,96292.59
2022-12-04T19:31:47.901Z,96297.22
2022-12-04T19:34:14.620Z,96299.50
2022-12-04T19:36:42.756Z,96303.34
2022-12-04T19:39:10.052Z,96299.00
2022-12-04T19:41:41.471Z,96305.41
2022-12-04T19:44:46.322Z,96304.13
2022-12-04T19:46:56.468Z,96319.75
2022-12-04T19:49:23.289Z,96323.91
2022-12-04T19:51:50.135Z,96327.72
2022-12-04T19:54:17.296Z,96337.19
2022-12-04T19:56:46.433Z,96332.09
2022-12-04T19:59:13.229Z,96340.78
2022-12-04T20:01:39.965Z,96345.34
2022-12-04T20:04:09.150Z,96354.31
2022-12-04T20:06:46.253Z,96346.16
2022-12-04T20:09:16.198Z,96352.78
2022-12-04T20:11:43.097Z,96348.16
2022-12-04T20:14:10.422Z,96355.88
2022-12-04T20:16:38.357Z,96359.97
2022-12-04T20:19:06.874Z,96358.44
2022-12-04T20:21:34.071Z,96362.31
2022-12-04T20:24:02.976Z,96360.78
2022-12-04T20:26:37.328Z,96344.06
2022-12-04T20:29:04.896Z,96352.03
2022-12-04T20:31:35.171Z,96363.81
2022-12-04T20:34:04.381Z,96362.06
2022-12-04T20:36:35.710Z,96353.84
2022-12-04T20:39:02.426Z,96345.66
2022-12-04T20:41:30.768Z,96347.44
2022-12-04T20:44:04.914Z,96348.44
2022-12-04T20:46:33.821Z,96343.06
2022-12-04T20:49:02.423Z,96350.72
2022-12-04T20:51:31.876Z,96357.63
2022-12-04T20:53:59.627Z,96351.50
2022-12-04T20:56:31.868Z,96350.72
2022-12-04T20:59:01.038Z,96359.16
2022-12-04T21:01:28.960Z,96359.94
2022-12-04T21:03:55.749Z,96355.56
2022-12-04T21:06:28.434Z,96350.72
2022-12-04T21:09:02.164Z,96352.50
2022-12-04T21:11:33.554Z,96358.13
2022-12-04T21:14:20.263Z,96356.34
2022-12-04T21:16:47.801Z,96368.38
2022-12-04T21:19:16.741Z,96359.94
2022-12-04T21:21:44.737Z,96358.88
2022-12-04T21:24:14.444Z,96361.44
2022-12-04T21:26:41.349Z,96359.69
2022-12-04T21:29:08.446Z,96362.72
2022-12-04T21:31:36.626Z,96370.94
2022-12-04T21:34:06.115Z,96370.69
2022-12-04T21:36:33.114Z,96374.50
2022-12-04T21:39:00.353Z,96370.91
2022-12-04T21:41:46.269Z,96377.31
2022-12-04T21:44:18.390Z,96376.53
2022-12-04T21:46:45.849Z,96385.22
2022-12-04T21:49:13.831Z,96390.63
2022-12-04T21:51:56.748Z,96386.00
2022-12-04T21:54:23.873Z,96379.09
2022-12-04T21:56:50.527Z,96390.09
2022-12-04T21:59:17.322Z,96387.53
2022-12-04T22:01:44.715Z,96389.03
2022-12-04T22:04:11.754Z,96387.22
2022-12-04T22:06:38.616Z,96386.47
2022-12-04T22:09:10.190Z,96386.00
2022-12-04T22:11:37.792Z,96375.75
2022-12-04T22:14:04.707Z,96376.78
2022-12-04T22:16:34.601Z,96371.66
2022-12-04T22:19:04.571Z,96377.31
2022-12-04T22:21:31.469Z,96380.16
2022-12-04T22:24:00.071Z,96375.56
2022-12-04T22:26:28.221Z,96378.41
2022-12-04T22:28:55.209Z,96371.97
2022-12-04T22:31:25.295Z,96368.66
2022-12-04T22:33:53.796Z,96359.72
2022-12-04T22:36:23.389Z,96362.28
2022-12-04T22:41:37.491Z,96368.69
2022-12-04T22:44:04.357Z,96368.66
2022-12-04T22:46:31.218Z,96369.44
2022-12-04T22:48:59.099Z,96373.50
2022-12-04T22:51:27.196Z,96378.38
2022-12-04T22:53:56.578Z,96366.81
2022-12-04T22:56:25.886Z,96364.00
2022-12-04T22:58:53.622Z,96364.50
2022-12-04T23:01:26.240Z,96374.00
2022-12-04T23:03:54.127Z,96369.59
2022-12-04T23:06:23.088Z,96370.09
2022-12-04T23:08:54.871Z,96368.13
2022-12-04T23:11:22.104Z,96363.75
2022-12-04T23:13:54.093Z,96364.53
2022-12-04T23:16:22.339Z,96365.03
2022-12-04T23:18:49.886Z,96369.88
2022-12-04T23:21:17.489Z,96359.41
2022-12-04T23:23:45.424Z,96367.63
2022-12-04T23:26:14.771Z,96370.19
2022-12-04T23:28:41.546Z,96374.53
2022-12-04T23:31:08.592Z,96378.91
2022-12-04T23:33:35.346Z,96383.25
2022-12-04T23:36:03.521Z,96389.16
2022-12-04T23:38:30.534Z,96386.06
2022-12-04T23:41:05.196Z,96385.56
2022-12-04T23:43:32.016Z,96387.88
2022-12-04T23:45:58.936Z,96390.97
2022-12-04T23:48:26.190Z,96391.44
2022-12-04T23:50:53.582Z,96387.66
2022-12-04T23:53:21.664Z,96385.09
2022-12-04T23:55:59.904Z,96386.38
2022-12-04T23:58:26.804Z,96394.84
